createdAt,value
2022-10-11T00:21:03.726Z,131
2022-10-11T00:51:04.835Z,132
2022-10-11T01:21:05.464Z,130
2022-10-11T01:51:04.956Z,130
2022-10-11T02:21:08.865Z,127
2022-10-11T02:51:10.589Z,127
2022-10-11T03:21:10.465Z,131
2022-10-11T03:51:11.575Z,130
2022-10-11T04:21:09.560Z,128
2022-10-11T04:51:10.605Z,128
2022-10-11T05:21:04.815Z,135
2022-10-11T05:52:12.973Z,132
2022-10-11T06:22:06.662Z,136
2022-10-11T06:52:10.086Z,141
2022-10-11T07:22:09.286Z,146
2022-10-11T07:52:07.987Z,157
2022-10-11T08:22:12.565Z,148
2022-10-11T08:52:11.585Z,138
2022-10-11T09:22:09.159Z,135
2022-10-11T09:52:12.328Z,131
2022-10-11T10:22:10.157Z,131
2022-10-11T10:52:11.549Z,130
2022-10-11T11:22:10.597Z,131
2022-10-11T11:52:11.797Z,133
2022-10-11T12:22:11.527Z,130
2022-10-11T12:53:22.741Z,131
2022-10-11T13:23:18.179Z,132
2022-10-11T13:53:12.651Z,133
2022-10-11T14:23:15.169Z,132
2022-10-11T14:53:16.514Z,131
2022-10-11T15:23:14.620Z,133
2022-10-11T15:53:11.248Z,135
2022-10-11T16:23:10.886Z,136
2022-10-11T16:53:06.059Z,137
2022-10-11T17:23:07.666Z,135
2022-10-11T17:53:08.198Z,150
2022-10-11T18:23:03.483Z,150
2022-10-11T18:52:57.724Z,141
2022-10-11T19:22:55.389Z,142
2022-10-11T19:52:53.297Z,146
2022-10-11T20:22:53.846Z,149
2022-10-11T20:52:52.400Z,150
2022-10-11T21:22:52.440Z,149
2022-10-11T21:52:50.277Z,153
2022-10-11T22:22:50.659Z,144
2022-10-11T22:52:53.519Z,141
2022-10-11T23:22:49.012Z,139
2022-10-11T23:52:51.430Z,137
